This is the latest recevied weather packets stored in our database for station/object LU5DTF-WX. If no packets are shown the sender has not sent any weather packets the latest 10 day(s).
| Time | Temp. | Humidity | Pressure | Rain* | Wind** | Luminosity | Snow |
|---|---|---|---|---|---|---|---|
| 1787857203 | 15.56° C | 61% | 1004 hPa | 0 mm | - | - | - |
| 1787856903 | 15.56° C | 59% | 1004.1 hPa | 0 mm | - | - | - |
| 1787856603 | 15.56° C | 59% | 1004.2 hPa | 0 mm | - | - | - |
| 1787856303 | 15.56° C | 58% | 1004.3 hPa | 0 mm | - | - | - |
| 1787856003 | 15.56° C | 58% | 1004.2 hPa | 0 mm | - | - | - |
| 1787855703 | 15.56° C | 60% | 1004.3 hPa | 0 mm | - | - | - |
| 1787855403 | 15.56° C | 61% | 1004.2 hPa | 0 mm | - | - | - |
| 1787855103 | 15.56° C | 61% | 1004.1 hPa | 0 mm | - | - | - |
| 1787854803 | 15° C | 63% | 1004 hPa | 0 mm | - | - | - |
| 1787854503 | 15° C | 64% | 1003.9 hPa | 0 mm | - | - | - |
| 1787854203 | 14.44° C | 68% | 1004 hPa | 0 mm | - | - | - |
| 1787853903 | 13.89° C | 70% | 1003.9 hPa | 0 mm | - | - | - |
| 1787853603 | 14.44° C | 70% | 1004 hPa | 0 mm | - | - | - |
| 1787853304 | 15° C | 67% | 1004.2 hPa | 0 mm | - | - | - |
| 1787853003 | 15° C | 67% | 1004.5 hPa | 0 mm | - | - | - |
| 1787852703 | 15.56° C | 66% | 1004.6 hPa | 0 mm | - | - | - |
| 1787852403 | 16.67° C | 62% | 1004.7 hPa | 0 mm | - | - | - |
| 1787852103 | 17.78° C | 60% | 1004.8 hPa | 0 mm | - | - | - |
| 1787851803 | 17.78° C | 61% | 1004.9 hPa | 0 mm | - | - | - |
| 1787851503 | 18.89° C | 60% | 1005 hPa | 0 mm | - | - | - |
| 1787851203 | 18.33° C | 60% | 1005 hPa | 0 mm | - | - | - |
| 1787850903 | 18.33° C | 62% | 1005.1 hPa | 0 mm | - | - | - |
| 1787850603 | 18.33° C | 62% | 1005.2 hPa | 0 mm | - | - | - |
| 1787850303 | 17.78° C | 63% | 1005.5 hPa | 0 mm | - | - | - |
| 1787850003 | 17.78° C | 63% | 1005.4 hPa | 0 mm | - | - | - |
* Rain latest hour (hover to see other rain measurements)
** Current wind speed in m/s (hover to see current wind gust speed)